Ana Sayfa
METAR-TAF:

METAR-TAF

Havaalanları :

Konakri Uluslararası Havalimanı

Konakri, Gine

Enlem: 09-34N, Boylam: 013-37W, yükseklik: 26 m

Güncel hava durumu gözlemi

Rapor saat 16:00 UTC de 25 dakika önce yapıldı.
Rüzgar batıdan 10 kt
Sıcaklık 33°C
Nem 59%
Basınç 1009 hPa
Görüş mesafesi: 5000 m
11000 ft yükseklikte parçalı bulutlu
Toz Pusu

METAR: GUCY 021600Z 28010KT 5000 HZ SCT110 33/24 Q1009 NOSIG

Saat: 16:25 (16:25 UTC)

Tahmin

Rapor saat 11:00 UTC de 5 saat ve 25 dakika önce yapıldı.
Ayın 02'si saat 12 UTC'den ayın 03'si saat 18 UTC'ye kadar geçerli Tahmin
Rüzgar batıdan 8 kt
Görüş mesafesi: 5000 m
Toz Pusu
Olasılık 30% :
Geçici
ayın 03'si saat 06 UTC'den ayın 03'si saat 09 UTC'ye kadar
Rüzgar değişken yönden 2 kt
Görüş mesafesi: 3000 m
1500 ft yükseklikte az bulutlu
Pus

TAF: GUCY 021100Z 0212/0318 26008KT 5000 HZ NSC PROB30 TEMPO 0306/0309 VRB02KT 3000 BR FEW015

4.000'den fazla havaalanı için hava durumu gözlemleri ve tahminleri (METAR ve TAF raporları).

Kullanılabilir istasyonlar harita üzerinde sarı ve kırmızı noktalarla gösterilir.

İstasyonun adını görmek için fareyi noktanın üzerinde gezdirin.

Sonrasında hava gözlem ve tahminlerini görmek için tıklayın.

Haritayı değiştirmek için: yaklaştırmak için siyah artı işaretli yeşil düğmeye ve uzaklaştırmak için de eksi işaretli düğmeye hızla tıklayın; bitişik haritalar için yeşil okları kullanın.


METAR-TAF: